createdAt,value
2023-04-01T00:00:33.746Z,0.42
2023-04-01T00:01:33.755Z,0.42
2023-04-01T00:02:33.794Z,0.45
2023-04-01T00:03:34.657Z,0.37
2023-04-01T00:04:33.718Z,0.36
2023-04-01T00:05:33.993Z,0.39
2023-04-01T00:06:33.821Z,0.38
2023-04-01T00:07:33.722Z,0.35
2023-04-01T00:08:33.890Z,0.31
2023-04-01T00:09:33.764Z,0.32
2023-04-01T00:10:33.792Z,0.34
2023-04-01T00:11:33.962Z,0.35
2023-04-01T00:12:33.950Z,0.34
2023-04-01T00:13:33.969Z,0.33
2023-04-01T00:14:33.829Z,0.31
2023-04-01T00:15:34.508Z,0.35
2023-04-01T00:16:34.191Z,0.29
2023-04-01T00:17:33.904Z,0.29
2023-04-01T00:18:33.870Z,0.3
2023-04-01T00:19:33.904Z,0.31
2023-04-01T00:20:34.000Z,0.33
2023-04-01T00:21:33.914Z,0.32
2023-04-01T00:22:33.987Z,0.31
2023-04-01T00:23:34.402Z,0.27
2023-04-01T00:24:33.956Z,0.28
2023-04-01T00:25:34.271Z,0.27
2023-04-01T00:26:33.970Z,0.26
2023-04-01T00:27:34.046Z,0.26
2023-04-01T00:28:34.921Z,0.27
2023-04-01T00:29:34.024Z,0.25
2023-04-01T00:30:34.062Z,0.25
2023-04-01T00:31:34.080Z,0.27
2023-04-01T00:32:34.437Z,0.29
2023-04-01T00:33:34.072Z,0.25
2023-04-01T00:34:34.058Z,0.27
2023-04-01T00:35:34.350Z,0.26
2023-04-01T00:36:34.164Z,0.25
2023-04-01T00:37:35.749Z,0.26
2023-04-01T00:38:34.145Z,0.26
2023-04-01T00:39:34.926Z,0.29
2023-04-01T00:40:38.893Z,0.26
2023-04-01T00:41:35.114Z,0.29
2023-04-01T00:42:35.151Z,0.27
2023-04-01T00:43:35.137Z,0.23
2023-04-01T00:44:35.318Z,0.23
2023-04-01T00:45:37.256Z,0.21
2023-04-01T00:46:35.208Z,0.22
2023-04-01T00:47:35.327Z,0.26
2023-04-01T00:48:36.864Z,0.2
2023-04-01T00:49:40.343Z,0.21
2023-04-01T00:50:37.977Z,0.21
2023-04-01T00:51:38.100Z,0.2
2023-04-01T00:52:36.882Z,0.24
2023-04-01T00:53:38.833Z,0.25
2023-04-01T00:54:36.990Z,0.22
2023-04-01T00:55:39.802Z,0.23
2023-04-01T00:56:38.637Z,0.24
2023-04-01T00:57:37.951Z,0.26
2023-04-01T00:58:39.214Z,0.22
2023-04-01T00:59:40.040Z,0.21
2023-04-01T01:00:37.192Z,0.28
2023-04-01T01:01:36.941Z,0.29
2023-04-01T01:02:36.946Z,0.25
2023-04-01T01:03:37.186Z,0.22
2023-04-01T01:04:36.796Z,0.22
2023-04-01T01:06:47.681Z,0.2
2023-04-01T01:07:47.831Z,0.16
2023-04-01T01:10:43.750Z,0.25
2023-04-01T01:27:14.138Z,0.16
2023-04-01T01:33:26.393Z,0.19
2023-04-01T01:36:29.004Z,0.23
2023-04-01T01:37:28.252Z,0.21
2023-04-01T01:38:29.812Z,0.14
2023-04-01T01:39:31.644Z,0.12
2023-04-01T01:40:29.199Z,0.16
2023-04-01T01:41:28.396Z,0.12
2023-04-01T01:42:30.132Z,0.11
2023-04-01T01:43:31.483Z,0.12
2023-04-01T01:44:29.385Z,0.13
2023-04-01T01:45:28.191Z,0.1
2023-04-01T01:46:28.573Z,0.13
2023-04-01T01:47:29.002Z,0.07
2023-04-01T01:48:28.560Z,0.06
2023-04-01T01:49:28.525Z,0.04
2023-04-01T01:50:28.346Z,0.04
2023-04-01T01:51:28.640Z,0.04
2023-04-01T01:52:28.560Z,0.04
2023-04-01T01:53:28.071Z,0
2023-04-01T01:54:28.013Z,0.02
2023-04-01T01:55:30.159Z,0
2023-04-01T01:56:29.442Z,0
2023-04-01T01:57:34.324Z,0
2023-04-01T01:58:39.548Z,0
2023-04-01T01:59:31.594Z,0
2023-04-01T02:00:31.165Z,0
2023-04-01T02:01:32.764Z,0.02
2023-04-01T02:02:32.159Z,0.01
2023-04-01T02:03:33.771Z,0.02
2023-04-01T02:04:31.044Z,0
2023-04-01T02:05:32.047Z,-0.02
2023-04-01T02:06:33.257Z,-0.01
2023-04-01T02:07:33.945Z,-0.01
2023-04-01T02:09:33.922Z,-0.01
2023-04-01T02:10:36.516Z,-0.02
2023-04-01T02:12:38.853Z,-0.06
2023-04-01T02:15:47.219Z,-0.11
2023-04-01T02:17:48.796Z,-0.1
2023-04-01T02:18:50.851Z,-0.05
2023-04-01T02:19:54.440Z,-0.05
2023-04-01T02:20:51.874Z,-0.08
2023-04-01T02:21:53.825Z,-0.1
2023-04-01T02:22:52.816Z,-0.08
2023-04-01T02:23:53.281Z,-0.08
2023-04-01T02:24:53.055Z,-0.1
2023-04-01T02:25:51.429Z,-0.12
2023-04-01T02:26:52.145Z,-0.1
2023-04-01T02:27:51.326Z,-0.12
2023-04-01T02:28:51.874Z,-0.11
2023-04-01T02:29:51.634Z,-0.13
2023-04-01T02:30:52.266Z,-0.08
2023-04-01T02:31:51.927Z,-0.08
2023-04-01T02:32:51.426Z,-0.12
2023-04-01T02:33:53.270Z,-0.12
2023-04-01T02:34:52.002Z,-0.14
2023-04-01T02:35:51.388Z,-0.12
2023-04-01T02:36:52.050Z,-0.08
2023-04-01T02:37:52.800Z,-0.13
2023-04-01T02:38:52.444Z,-0.11
2023-04-01T02:39:51.356Z,-0.1
2023-04-01T02:40:52.318Z,-0.11
2023-04-01T02:41:51.339Z,-0.1
2023-04-01T02:42:51.393Z,-0.11
2023-04-01T02:43:51.411Z,-0.12
2023-04-01T02:44:51.413Z,-0.12
2023-04-01T02:45:51.438Z,-0.11
2023-04-01T02:46:51.506Z,-0.14
2023-04-01T02:47:51.488Z,-0.11
2023-04-01T02:48:51.473Z,-0.1
2023-04-01T02:49:51.487Z,-0.07
2023-04-01T02:50:51.538Z,-0.08
2023-04-01T02:51:51.526Z,-0.09
2023-04-01T02:52:56.105Z,-0.1
2023-04-01T02:53:52.933Z,-0.12
2023-04-01T02:54:53.169Z,-0.11
2023-04-01T02:55:52.832Z,-0.1
2023-04-01T02:56:52.803Z,-0.1
2023-04-01T02:57:52.885Z,-0.1
2023-04-01T02:58:53.168Z,-0.1
2023-04-01T02:59:53.229Z,-0.13
2023-04-01T03:00:52.912Z,-0.11
2023-04-01T03:01:52.935Z,-0.14
2023-04-01T03:02:53.424Z,-0.12
2023-04-01T03:03:52.992Z,-0.13
2023-04-01T03:04:53.218Z,-0.11
2023-04-01T03:05:52.981Z,-0.1
2023-04-01T03:06:52.964Z,-0.13
2023-04-01T03:07:52.945Z,-0.12
2023-04-01T03:08:52.998Z,-0.12
2023-04-01T03:09:53.070Z,-0.11
2023-04-01T03:10:52.994Z,-0.13
2023-04-01T03:11:52.996Z,-0.12
2023-04-01T03:12:53.040Z,-0.11
2023-04-01T03:13:53.098Z,-0.14
2023-04-01T03:14:53.163Z,-0.09
2023-04-01T03:15:53.348Z,-0.09
2023-04-01T03:16:53.190Z,-0.11
2023-04-01T03:17:53.171Z,-0.11
2023-04-01T03:18:53.168Z,-0.1
2023-04-01T03:19:53.122Z,-0.12
2023-04-01T03:20:53.126Z,-0.11
2023-04-01T03:21:53.378Z,-0.12
2023-04-01T03:22:53.196Z,-0.11
2023-04-01T03:23:53.241Z,-0.14
2023-04-01T03:24:53.214Z,-0.11
2023-04-01T03:25:53.365Z,-0.16
2023-04-01T03:26:53.224Z,-0.14
2023-04-01T03:27:53.329Z,-0.13
2023-04-01T03:28:53.419Z,-0.13
2023-04-01T03:29:53.351Z,-0.13
2023-04-01T03:30:53.291Z,-0.11
2023-04-01T03:31:53.328Z,-0.08
2023-04-01T03:32:53.589Z,-0.11
2023-04-01T03:33:53.383Z,-0.08
2023-04-01T03:34:53.384Z,-0.08
2023-04-01T03:35:53.524Z,-0.11
2023-04-01T03:36:53.496Z,-0.08
2023-04-01T03:37:54.051Z,-0.12
2023-04-01T03:38:53.480Z,-0.12
2023-04-01T03:39:54.032Z,-0.11
2023-04-01T03:40:53.885Z,-0.07
2023-04-01T03:41:53.897Z,-0.1
2023-04-01T03:42:54.038Z,-0.1
2023-04-01T03:43:54.208Z,-0.12
2023-04-01T03:44:54.011Z,-0.1
2023-04-01T03:45:54.888Z,-0.11
2023-04-01T03:46:54.037Z,-0.13
2023-04-01T03:47:54.572Z,-0.1
2023-04-01T03:48:54.067Z,-0.09
2023-04-01T03:49:54.014Z,-0.12
2023-04-01T03:50:54.071Z,-0.1
2023-04-01T03:51:54.161Z,-0.14
2023-04-01T03:52:54.086Z,-0.08
2023-04-01T03:53:54.156Z,-0.13
2023-04-01T03:54:54.127Z,-0.13
2023-04-01T03:55:54.567Z,-0.13
2023-04-01T03:56:54.274Z,-0.12
2023-04-01T03:57:54.186Z,-0.09
2023-04-01T03:58:54.305Z,-0.11
2023-04-01T03:59:54.241Z,-0.11
2023-04-01T04:00:54.278Z,-0.11
2023-04-01T04:01:54.223Z,-0.13
2023-04-01T04:02:54.300Z,-0.12
2023-04-01T04:03:54.464Z,-0.11
2023-04-01T04:04:54.233Z,-0.13
2023-04-01T04:05:54.295Z,-0.13
2023-04-01T04:06:54.897Z,-0.11
2023-04-01T04:07:54.870Z,-0.1
2023-04-01T04:08:54.375Z,-0.12
2023-04-01T04:09:54.349Z,-0.13
2023-04-01T04:10:56.908Z,-0.1
2023-04-01T04:11:54.392Z,-0.08
2023-04-01T04:12:54.405Z,-0.08
2023-04-01T04:13:56.030Z,-0.07
2023-04-01T04:14:54.551Z,-0.1
2023-04-01T04:15:54.459Z,-0.09
2023-04-01T04:16:54.488Z,-0.12
2023-04-01T04:17:54.615Z,-0.14
2023-04-01T04:18:54.438Z,-0.12
2023-04-01T04:19:54.570Z,-0.13
2023-04-01T04:20:54.543Z,-0.14
2023-04-01T04:21:54.545Z,-0.11
2023-04-01T04:22:54.604Z,-0.1
2023-04-01T04:23:54.604Z,-0.12
2023-04-01T04:24:54.610Z,-0.12
2023-04-01T04:25:55.614Z,-0.14
2023-04-01T04:26:54.611Z,-0.12
2023-04-01T04:27:54.670Z,-0.13
2023-04-01T04:28:55.420Z,-0.15
2023-04-01T04:29:54.742Z,-0.15
2023-04-01T04:30:55.034Z,-0.11
2023-04-01T04:31:54.712Z,-0.14
2023-04-01T04:32:54.744Z,-0.09
2023-04-01T04:33:55.056Z,-0.12
2023-04-01T04:34:54.755Z,-0.13
2023-04-01T04:35:58.268Z,-0.12
2023-04-01T04:36:54.987Z,-0.14
2023-04-01T04:37:54.962Z,-0.13
2023-04-01T04:38:55.009Z,-0.14
2023-04-01T04:39:55.050Z,-0.14
2023-04-01T04:40:55.179Z,-0.1
2023-04-01T04:41:55.069Z,-0.1
2023-04-01T04:42:55.131Z,-0.13
2023-04-01T04:43:56.567Z,-0.14
2023-04-01T04:44:55.124Z,-0.15
2023-04-01T04:45:55.105Z,-0.12
2023-04-01T04:46:56.546Z,-0.1
2023-04-01T04:47:55.194Z,-0.09
2023-04-01T04:48:55.251Z,-0.11
2023-04-01T04:49:55.248Z,-0.11
2023-04-01T04:50:55.206Z,-0.11
2023-04-01T04:51:55.245Z,-0.1
2023-04-01T04:52:55.249Z,-0.1
2023-04-01T04:53:55.245Z,-0.1
2023-04-01T04:54:55.238Z,-0.11
2023-04-01T04:55:55.334Z,-0.11
2023-04-01T04:56:55.357Z,-0.12
2023-04-01T04:57:55.297Z,-0.11
2023-04-01T04:58:55.320Z,-0.1
2023-04-01T04:59:55.331Z,-0.07
2023-04-01T05:00:55.410Z,-0.09
2023-04-01T05:01:55.363Z,-0.09
2023-04-01T05:02:55.589Z,-0.1
2023-04-01T05:03:55.474Z,-0.07
2023-04-01T05:04:55.407Z,-0.05
2023-04-01T05:05:55.417Z,-0.03
2023-04-01T05:06:55.408Z,-0.03
2023-04-01T05:07:55.588Z,-0.11
2023-04-01T05:08:55.817Z,-0.06
2023-04-01T05:09:55.459Z,-0.06
2023-04-01T05:10:55.525Z,-0.07
2023-04-01T05:11:55.483Z,-0.06
2023-04-01T05:12:55.721Z,-0.08
2023-04-01T05:13:55.574Z,-0.11
2023-04-01T05:14:55.588Z,-0.06
2023-04-01T05:15:55.765Z,-0.04
2023-04-01T05:16:55.773Z,-0.06
2023-04-01T05:17:55.615Z,-0.05
2023-04-01T05:18:55.687Z,-0.03
2023-04-01T05:19:55.659Z,-0.03
2023-04-01T05:20:56.317Z,-0.05
2023-04-01T05:21:55.763Z,-0.05
2023-04-01T05:22:58.883Z,-0.04
2023-04-01T05:23:55.721Z,-0.03
2023-04-01T05:24:55.794Z,-0.07
2023-04-01T05:25:55.732Z,-0.05
2023-04-01T05:26:56.973Z,-0.01
2023-04-01T05:27:55.811Z,-0.05
2023-04-01T05:28:55.756Z,-0.07
2023-04-01T05:29:55.797Z,-0.08
2023-04-01T05:30:55.889Z,-0.05
2023-04-01T05:31:55.906Z,-0.05
2023-04-01T05:32:55.915Z,-0.04
2023-04-01T05:33:56.174Z,-0.06
2023-04-01T05:34:55.851Z,-0.06
2023-04-01T05:35:56.563Z,-0.05
2023-04-01T05:36:55.938Z,-0.06
2023-04-01T05:37:55.916Z,-0.08
2023-04-01T05:38:56.566Z,-0.06
2023-04-01T05:39:56.002Z,-0.05
2023-04-01T05:40:59.681Z,-0.06
2023-04-01T05:41:56.376Z,-0.06
2023-04-01T05:42:56.424Z,-0.07
2023-04-01T05:43:56.387Z,-0.05
2023-04-01T05:44:56.433Z,-0.09
2023-04-01T05:45:56.761Z,-0.07
2023-04-01T05:46:56.821Z,-0.07
2023-04-01T05:47:56.909Z,-0.05
2023-04-01T05:48:56.927Z,-0.07
2023-04-01T05:49:56.932Z,-0.05
2023-04-01T05:50:56.921Z,-0.07
2023-04-01T05:51:57.390Z,-0.09
2023-04-01T05:52:57.120Z,-0.05
2023-04-01T05:53:56.933Z,-0.07
2023-04-01T05:54:56.959Z,-0.08
2023-04-01T05:55:57.038Z,-0.03
2023-04-01T05:56:57.031Z,-0.07
2023-04-01T05:57:57.190Z,-0.05
2023-04-01T05:58:57.035Z,-0.04
2023-04-01T05:59:57.173Z,-0.05
2023-04-01T06:01:11.460Z,-0.04
2023-04-01T06:01:58.815Z,-0.08
2023-04-01T06:02:59.103Z,-0.09
2023-04-01T06:03:57.306Z,-0.03
2023-04-01T06:05:58.693Z,-0.07
2023-04-01T06:06:58.665Z,-0.05
2023-04-01T06:07:59.738Z,-0.04
2023-04-01T06:09:02.699Z,-0.05
2023-04-01T06:10:00.208Z,-0.02
2023-04-01T06:11:13.100Z,-0.04
2023-04-01T06:13:11.098Z,-0.03
2023-04-01T06:19:25.366Z,0.02
2023-04-01T06:26:42.007Z,-0.01
2023-04-01T06:30:48.406Z,0.06
2023-04-01T06:33:59.386Z,0.05
2023-04-01T06:35:03.686Z,0.08
2023-04-01T06:53:49.460Z,0.09
2023-04-01T06:54:49.364Z,0.08
2023-04-01T06:55:50.909Z,0.09
2023-04-01T06:56:50.637Z,0.15
2023-04-01T06:57:51.758Z,0.15
2023-04-01T06:58:56.165Z,0.14
2023-04-01T06:59:53.589Z,0.09
2023-04-01T07:00:54.145Z,0.15
2023-04-01T07:02:00.685Z,0.13
2023-04-01T07:03:06.707Z,0.13
2023-04-01T07:04:01.245Z,0.12
2023-04-01T07:04:59.080Z,0.09
2023-04-01T07:06:01.032Z,0.09
2023-04-01T07:07:05.044Z,0.09
2023-04-01T07:08:03.184Z,0.13
2023-04-01T07:09:04.449Z,0.11
2023-04-01T07:10:04.736Z,0.19
2023-04-01T07:11:03.547Z,0.13
2023-04-01T07:12:06.913Z,0.14
2023-04-01T07:13:06.070Z,0.15
2023-04-01T07:14:05.875Z,0.11
2023-04-01T07:15:10.962Z,0.15
2023-04-01T07:16:11.803Z,0.15
2023-04-01T07:17:15.647Z,0.14
2023-04-01T07:18:15.943Z,0.19
2023-04-01T07:24:27.633Z,0.17
2023-04-01T07:25:26.850Z,0.2
2023-04-01T07:26:25.202Z,0.21
2023-04-01T07:27:23.957Z,0.21
2023-04-01T07:28:23.936Z,0.23
2023-04-01T07:29:25.743Z,0.21
2023-04-01T07:30:25.421Z,0.21
2023-04-01T07:32:34.873Z,0.26
2023-04-01T07:35:39.234Z,0.21
2023-04-01T07:44:02.260Z,0.3
2023-04-01T07:53:26.839Z,0.4
2023-04-01T07:55:27.028Z,0.4
2023-04-01T08:05:58.130Z,0.49
2023-04-01T08:12:14.361Z,0.65
2023-04-01T08:15:13.582Z,0.7
2023-04-01T08:16:19.939Z,0.66
2023-04-01T08:17:17.238Z,0.73
2023-04-01T08:18:27.272Z,0.66
2023-04-01T08:19:26.892Z,0.64
2023-04-01T08:20:28.008Z,0.74
2023-04-01T08:21:28.836Z,0.82
2023-04-01T08:22:24.009Z,0.79
2023-04-01T08:23:23.517Z,0.84
2023-04-01T08:24:37.164Z,0.84
2023-04-01T08:25:25.022Z,0.75
2023-04-01T08:26:29.349Z,0.87
2023-04-01T08:33:37.609Z,0.92
2023-04-01T08:34:40.900Z,1.01
2023-04-01T08:36:44.061Z,0.96
2023-04-01T08:37:42.667Z,1.03
2023-04-01T08:39:49.015Z,1.08
2023-04-01T08:40:56.022Z,1.02
2023-04-01T08:46:07.050Z,0.99
2023-04-01T08:48:14.062Z,0.96
2023-04-01T08:56:21.157Z,1.18
2023-04-01T08:59:31.277Z,1.32
2023-04-01T09:00:42.302Z,1.14
2023-04-01T09:05:48.724Z,1.29
2023-04-01T09:08:54.767Z,1.52
2023-04-01T09:09:55.723Z,1.45
2023-04-01T09:18:22.112Z,1.42
2023-04-01T09:19:16.034Z,1.35
2023-04-01T09:21:24.453Z,1.51
2023-04-01T09:28:42.617Z,1.35
2023-04-01T09:59:03.246Z,1.67
2023-04-01T10:13:45.905Z,1.61
2023-04-01T10:22:00.988Z,1.86
2023-04-01T10:26:10.105Z,1.75
2023-04-01T10:39:35.318Z,2.05
2023-04-01T10:56:34.944Z,1.96
2023-04-01T11:20:46.244Z,1.94
2023-04-01T11:29:07.610Z,2.03
2023-04-01T11:30:11.595Z,2.03
2023-04-01T11:32:21.125Z,2.04
2023-04-01T11:33:23.700Z,1.98
2023-04-01T11:40:48.420Z,2.11
2023-04-01T11:41:47.217Z,2.16
2023-04-01T11:47:00.620Z,2.09
2023-04-01T12:28:42.303Z,2.02
2023-04-01T12:30:40.406Z,1.92
2023-04-01T12:49:28.281Z,2.01
2023-04-01T12:55:49.519Z,2.11
2023-04-01T13:01:00.991Z,1.98
2023-04-01T13:17:50.346Z,1.84
2023-04-01T13:18:56.540Z,1.76
2023-04-01T13:20:02.086Z,1.73
2023-04-01T13:22:03.258Z,1.7
2023-04-01T13:26:14.211Z,1.71
2023-04-01T13:28:07.792Z,1.7
2023-04-01T13:32:19.056Z,1.69
2023-04-01T13:37:33.360Z,1.62
2023-04-01T13:42:34.725Z,1.42
2023-04-01T13:53:06.824Z,1.39
2023-04-01T13:55:17.447Z,1.4
2023-04-01T13:59:20.820Z,1.43
2023-04-01T14:14:04.585Z,1.4
2023-04-01T14:21:24.025Z,1.37
2023-04-01T14:22:30.067Z,1.39
2023-04-01T14:24:32.740Z,1.35
2023-04-01T14:27:42.082Z,1.35
2023-04-01T14:30:43.203Z,1.36
2023-04-01T14:32:52.694Z,1.4
2023-04-01T14:41:21.393Z,1.39
2023-04-01T14:49:36.688Z,1.4
2023-04-01T14:51:39.376Z,1.4
2023-04-01T14:52:39.077Z,1.37
2023-04-01T14:53:42.442Z,1.45
2023-04-01T14:54:41.279Z,1.42
2023-04-01T14:56:45.379Z,1.42
2023-04-01T14:57:41.682Z,1.39
2023-04-01T14:58:50.510Z,1.41
2023-04-01T14:59:46.712Z,1.41
2023-04-01T15:01:49.062Z,1.41
2023-04-01T15:04:59.501Z,1.4
2023-04-01T15:13:14.745Z,1.32
2023-04-01T15:18:27.678Z,1.3
2023-04-01T15:19:37.113Z,1.33
2023-04-01T15:26:52.751Z,1.26
2023-04-01T15:27:56.057Z,1.29
2023-04-01T15:31:59.512Z,1.28
2023-04-01T15:33:03.549Z,1.26
2023-04-01T15:39:19.749Z,1.25
2023-04-01T15:43:37.974Z,1.21
2023-04-01T15:49:49.594Z,1.09
2023-04-01T15:56:00.179Z,1
2023-04-01T16:19:05.574Z,0.82
2023-04-01T16:20:07.297Z,0.82
2023-04-01T16:21:12.893Z,0.84
2023-04-01T16:27:28.102Z,0.79
2023-04-01T16:32:45.154Z,0.75
2023-04-01T16:37:56.638Z,0.78
2023-04-01T16:43:12.663Z,0.71
2023-04-01T16:44:18.552Z,0.73
2023-04-01T16:47:16.029Z,0.73
2023-04-01T16:48:21.216Z,0.75
2023-04-01T16:51:27.360Z,0.74
2023-04-01T16:55:51.523Z,0.69
2023-04-01T16:56:51.193Z,0.67
2023-04-01T16:57:52.590Z,0.68
2023-04-01T16:58:55.822Z,0.67
2023-04-01T16:59:53.876Z,0.69
2023-04-01T17:00:54.261Z,0.67
2023-04-01T17:01:56.437Z,0.68
2023-04-01T17:03:03.137Z,0.67
2023-04-01T17:03:59.855Z,0.68
2023-04-01T17:07:07.043Z,0.66
2023-04-01T17:08:11.977Z,0.66
2023-04-01T17:11:28.162Z,0.67
2023-04-01T17:12:25.791Z,0.67
2023-04-01T17:15:33.754Z,0.71
2023-04-01T17:23:52.993Z,0.68
2023-04-01T17:26:57.719Z,0.68
2023-04-01T17:38:24.751Z,0.62
2023-04-01T17:39:21.678Z,0.62
2023-04-01T17:48:47.033Z,0.61
2023-04-01T17:49:54.263Z,0.59
2023-04-01T17:58:18.841Z,0.55
2023-04-01T17:59:16.987Z,0.57
2023-04-01T18:01:23.018Z,0.56
2023-04-01T18:02:26.829Z,0.54
2023-04-01T18:10:53.344Z,0.54
2023-04-01T18:19:10.184Z,0.45
2023-04-01T18:23:22.642Z,0.4
2023-04-01T18:24:28.829Z,0.39
2023-04-01T18:25:33.697Z,0.38
2023-04-01T18:26:30.619Z,0.41
2023-04-01T18:27:32.747Z,0.36
2023-04-01T18:30:40.090Z,0.34
2023-04-01T18:31:39.177Z,0.33
2023-04-01T18:32:42.835Z,0.29
2023-04-01T18:33:48.371Z,0.29
2023-04-01T18:36:47.277Z,0.3
2023-04-01T18:39:53.722Z,0.28
2023-04-01T18:45:10.578Z,0.25
2023-04-01T18:54:34.192Z,0.23
2023-04-01T18:59:43.209Z,0.23
2023-04-01T19:00:44.340Z,0.22
2023-04-01T19:02:49.106Z,0.26
2023-04-01T19:05:53.940Z,0.27
2023-04-01T19:06:53.831Z,0.26
2023-04-01T19:07:56.454Z,0.21
2023-04-01T19:08:53.103Z,0.22
2023-04-01T19:09:53.028Z,0.24
2023-04-01T19:19:30.135Z,0.26
2023-04-01T19:20:30.090Z,0.28
2023-04-01T19:21:30.241Z,0.26
2023-04-01T19:24:36.948Z,0.24
2023-04-01T19:29:46.798Z,0.29
2023-04-01T19:30:53.965Z,0.26
2023-04-01T19:31:52.706Z,0.28
2023-04-01T19:34:59.606Z,0.27
2023-04-01T19:36:01.831Z,0.29
2023-04-01T19:46:24.617Z,0.29
2023-04-01T19:52:33.661Z,0.29
2023-04-01T19:58:53.036Z,0.3
2023-04-01T20:00:52.476Z,0.31
2023-04-01T20:02:59.209Z,0.28
2023-04-01T20:03:58.809Z,0.28
2023-04-01T20:04:56.951Z,0.3
2023-04-01T20:07:13.552Z,0.29
2023-04-01T20:13:24.840Z,0.25
2023-04-01T20:15:34.926Z,0.27
2023-04-01T20:19:37.187Z,0.28
2023-04-01T20:20:34.946Z,0.27
2023-04-01T20:21:41.862Z,0.27
2023-04-01T20:24:46.866Z,0.26
2023-04-01T20:25:52.476Z,0.28
2023-04-01T20:27:57.316Z,0.24
2023-04-01T20:30:00.144Z,0.29
2023-04-01T20:33:11.623Z,0.27
2023-04-01T20:37:26.132Z,0.24
2023-04-01T20:39:26.322Z,0.25
2023-04-01T20:44:38.589Z,0.25
2023-04-01T20:45:43.583Z,0.25
2023-04-01T20:51:43.939Z,0.24
2023-04-01T20:52:50.320Z,0.22
2023-04-01T20:54:57.957Z,0.25
2023-04-01T21:10:41.123Z,0.17
2023-04-01T21:29:33.691Z,0.07
2023-04-01T21:31:42.457Z,0.05
2023-04-01T21:34:51.517Z,0.04
2023-04-01T21:42:12.022Z,0
2023-04-01T21:43:17.607Z,0
2023-04-01T21:54:39.977Z,-0.01
2023-04-01T21:55:50.563Z,-0.02
2023-04-01T22:09:17.941Z,-0.08
2023-04-01T22:17:39.299Z,-0.13
2023-04-01T22:18:41.765Z,-0.13
2023-04-01T22:19:45.357Z,-0.13
2023-04-01T22:20:51.984Z,-0.13
2023-04-01T22:28:07.471Z,-0.19
2023-04-01T22:29:08.255Z,-0.19
2023-04-01T22:31:08.948Z,-0.2
2023-04-01T22:32:09.115Z,-0.2
2023-04-01T22:34:17.728Z,-0.2
2023-04-01T22:36:28.318Z,-0.21
2023-04-01T22:43:38.583Z,-0.28
2023-04-01T22:44:45.541Z,-0.28
2023-04-01T22:49:53.270Z,-0.31
2023-04-01T22:52:56.071Z,-0.3
2023-04-01T22:54:59.551Z,-0.3
2023-04-01T22:55:57.997Z,-0.27
2023-04-01T22:56:58.459Z,-0.31
2023-04-01T22:59:03.860Z,-0.32
2023-04-01T23:00:04.598Z,-0.33
2023-04-01T23:01:04.309Z,-0.32
2023-04-01T23:02:04.894Z,-0.34
2023-04-01T23:03:05.321Z,-0.34
2023-04-01T23:04:03.994Z,-0.36
2023-04-01T23:05:02.979Z,-0.32
2023-04-01T23:06:02.808Z,-0.33
2023-04-01T23:07:04.736Z,-0.33
2023-04-01T23:09:07.511Z,-0.33
2023-04-01T23:10:06.762Z,-0.35
2023-04-01T23:11:07.056Z,-0.33
2023-04-01T23:12:10.348Z,-0.36
2023-04-01T23:13:11.665Z,-0.36
2023-04-01T23:15:15.731Z,-0.38
2023-04-01T23:16:12.632Z,-0.37
2023-04-01T23:19:21.924Z,-0.39
2023-04-01T23:21:24.736Z,-0.4
2023-04-01T23:22:24.463Z,-0.39
2023-04-01T23:24:30.458Z,-0.41
2023-04-01T23:26:37.535Z,-0.45
2023-04-01T23:27:37.857Z,-0.49
2023-04-01T23:28:41.360Z,-0.48
2023-04-01T23:29:36.414Z,-0.5
2023-04-01T23:31:42.441Z,-0.5
2023-04-01T23:32:38.791Z,-0.53
2023-04-01T23:33:38.825Z,-0.52
2023-04-01T23:34:38.826Z,-0.55
2023-04-01T23:36:44.781Z,-0.54
2023-04-01T23:37:43.143Z,-0.56
2023-04-01T23:38:43.887Z,-0.58
2023-04-01T23:39:44.813Z,-0.59
2023-04-01T23:40:43.118Z,-0.58
2023-04-01T23:41:43.123Z,-0.59
2023-04-01T23:42:43.162Z,-0.59
2023-04-01T23:43:44.424Z,-0.58
2023-04-01T23:44:43.724Z,-0.59
2023-04-01T23:45:43.539Z,-0.61
2023-04-01T23:46:45.143Z,-0.61
2023-04-01T23:47:43.790Z,-0.6
2023-04-01T23:48:44.455Z,-0.59
2023-04-01T23:49:45.767Z,-0.61
2023-04-01T23:50:44.678Z,-0.62
2023-04-01T23:51:52.974Z,-0.57
2023-04-01T23:52:47.479Z,-0.58
2023-04-01T23:53:47.852Z,-0.6
2023-04-01T23:55:46.545Z,-0.6
2023-04-01T23:56:47.216Z,-0.6
2023-04-01T23:58:49.627Z,-0.59
